KMLU/MLU METAR and TAF weather

Enter ICAO airport designator
Station Type Date Time Source
KMLU METAR 2020/12/06 00:53 UTC NOAA

KMLU 060053Z 21004KT 10SM CLR 10/05 A3017 RMK AO2 SLP214 T01000050


Station Type Date Time Source
KMLU Decoded METAR 2020/12/06 00:53 UTC NOAA

MONROE REGIONAL AIRPORT, LA, United States (KMLU) 32-31N 092-02W 29M
Dec 05, 2020 - 07:53 PM EST / 2020.12.06 0053 UTC
Wind: from the SSW (210 degrees) at 5 MPH (4 KT):0
Visibility: 10 mile(s):0
Sky conditions: clear
Temperature: 50.0 F (10.0 C)
Dew Point: 41.0 F (5.0 C)
Relative Humidity: 71%
Pressure (altimeter): 30.17 in. Hg (1021 hPa)
ob: KMLU 060053Z 21004KT 10SM CLR 10/05 A3017 RMK AO2 SLP214 T01000050
cycle: 1

Station Type Date Time Source
KMLU TAF 2020/12/06 00:00 UTC NOAA

KMLU 052359Z 0600/0624 00000KT P6SM SCT250
FM060600 24003KT P6SM SCT100 BKN150
FM061200 23004KT 6SM BR VCSH OVC080
TEMPO 0613/0616 5SM -SHRA BR OVC080
FM061600 28007KT P6SM BKN060 OVC080

Example: see airport list